sensor_id;sensor_type;location;lat;lon;timestamp;P1;durP1;ratioP1;P2;durP2;ratioP2
59239;SDS011;45010;53.640;10.578;2024-01-15T00:02:49;0.50;;;0.28;;
59239;SDS011;45010;53.640;10.578;2024-01-15T00:05:49;0.60;;;0.32;;
59239;SDS011;45010;53.640;10.578;2024-01-15T00:08:50;0.25;;;0.10;;
59239;SDS011;45010;53.640;10.578;2024-01-15T00:11:50;0.60;;;0.30;;
59239;SDS011;45010;53.640;10.578;2024-01-15T00:14:50;0.35;;;0.22;;
59239;SDS011;45010;53.640;10.578;2024-01-15T00:17:51;0.90;;;0.45;;
59239;SDS011;45010;53.640;10.578;2024-01-15T00:20:51;1.50;;;0.30;;
59239;SDS011;45010;53.640;10.578;2024-01-15T00:23:51;0.73;;;0.50;;
59239;SDS011;45010;53.640;10.578;2024-01-15T00:26:52;1.13;;;0.20;;
59239;SDS011;45010;53.640;10.578;2024-01-15T00:29:53;0.85;;;0.30;;
59239;SDS011;45010;53.640;10.578;2024-01-15T00:32:54;0.73;;;0.30;;
59239;SDS011;45010;53.640;10.578;2024-01-15T00:35:54;0.57;;;0.30;;
59239;SDS011;45010;53.640;10.578;2024-01-15T00:38:55;1.42;;;0.40;;
59239;SDS011;45010;53.640;10.578;2024-01-15T00:41:55;0.90;;;0.32;;
59239;SDS011;45010;53.640;10.578;2024-01-15T00:44:55;1.38;;;0.35;;
59239;SDS011;45010;53.640;10.578;2024-01-15T00:47:56;0.70;;;0.43;;
59239;SDS011;45010;53.640;10.578;2024-01-15T00:50:56;0.80;;;0.38;;
59239;SDS011;45010;53.640;10.578;2024-01-15T00:53:56;1.38;;;0.30;;
59239;SDS011;45010;53.640;10.578;2024-01-15T00:56:57;1.73;;;0.30;;
59239;SDS011;45010;53.640;10.578;2024-01-15T00:59:57;1.42;;;0.43;;
59239;SDS011;45010;53.640;10.578;2024-01-15T01:02:57;0.43;;;0.28;;
59239;SDS011;45010;53.640;10.578;2024-01-15T01:05:58;0.93;;;0.50;;
59239;SDS011;45010;53.640;10.578;2024-01-15T01:08:58;2.35;;;0.40;;
59239;SDS011;45010;53.640;10.578;2024-01-15T01:11:58;1.25;;;0.28;;
59239;SDS011;45010;53.640;10.578;2024-01-15T01:14:59;1.88;;;0.32;;
59239;SDS011;45010;53.640;10.578;2024-01-15T01:17:59;0.88;;;0.38;;
59239;SDS011;45010;53.640;10.578;2024-01-15T01:20:59;1.52;;;0.28;;
59239;SDS011;45010;53.640;10.578;2024-01-15T01:24:00;1.35;;;0.60;;
59239;SDS011;45010;53.640;10.578;2024-01-15T01:27:01;1.23;;;0.30;;
59239;SDS011;45010;53.640;10.578;2024-01-15T01:30:01;0.50;;;0.20;;
59239;SDS011;45010;53.640;10.578;2024-01-15T01:33:01;0.80;;;0.40;;
59239;SDS011;45010;53.640;10.578;2024-01-15T01:36:06;0.50;;;0.30;;
59239;SDS011;45010;53.640;10.578;2024-01-15T01:39:07;1.40;;;0.45;;
59239;SDS011;45010;53.640;10.578;2024-01-15T01:42:07;1.00;;;0.38;;
59239;SDS011;45010;53.640;10.578;2024-01-15T01:45:08;0.63;;;0.40;;
59239;SDS011;45010;53.640;10.578;2024-01-15T01:48:09;0.63;;;0.28;;
59239;SDS011;45010;53.640;10.578;2024-01-15T01:51:09;0.73;;;0.40;;
59239;SDS011;45010;53.640;10.578;2024-01-15T01:54:10;0.73;;;0.40;;
59239;SDS011;45010;53.640;10.578;2024-01-15T01:57:13;0.28;;;0.20;;
59239;SDS011;45010;53.640;10.578;2024-01-15T02:00:15;0.40;;;0.30;;
59239;SDS011;45010;53.640;10.578;2024-01-15T02:03:15;0.90;;;0.30;;
59239;SDS011;45010;53.640;10.578;2024-01-15T02:06:16;0.38;;;0.30;;
59239;SDS011;45010;53.640;10.578;2024-01-15T02:09:16;0.70;;;0.47;;
59239;SDS011;45010;53.640;10.578;2024-01-15T02:12:17;0.55;;;0.25;;
59239;SDS011;45010;53.640;10.578;2024-01-15T02:15:18;0.43;;;0.20;;
59239;SDS011;45010;53.640;10.578;2024-01-15T02:18:18;1.00;;;0.40;;
59239;SDS011;45010;53.640;10.578;2024-01-15T02:21:20;0.60;;;0.40;;
59239;SDS011;45010;53.640;10.578;2024-01-15T02:24:20;1.67;;;0.57;;
59239;SDS011;45010;53.640;10.578;2024-01-15T02:27:20;1.42;;;0.30;;
59239;SDS011;45010;53.640;10.578;2024-01-15T02:30:21;0.40;;;0.10;;
59239;SDS011;45010;53.640;10.578;2024-01-15T02:33:22;0.50;;;0.20;;
59239;SDS011;45010;53.640;10.578;2024-01-15T02:36:22;0.98;;;0.47;;
59239;SDS011;45010;53.640;10.578;2024-01-15T02:39:23;0.50;;;0.22;;
59239;SDS011;45010;53.640;10.578;2024-01-15T02:42:23;0.85;;;0.40;;
59239;SDS011;45010;53.640;10.578;2024-01-15T02:45:26;0.50;;;0.35;;
59239;SDS011;45010;53.640;10.578;2024-01-15T02:48:27;0.50;;;0.20;;
59239;SDS011;45010;53.640;10.578;2024-01-15T02:51:27;0.95;;;0.30;;
59239;SDS011;45010;53.640;10.578;2024-01-15T02:54:27;0.57;;;0.22;;
59239;SDS011;45010;53.640;10.578;2024-01-15T02:57:28;0.90;;;0.30;;
59239;SDS011;45010;53.640;10.578;2024-01-15T03:00:28;0.95;;;0.30;;
59239;SDS011;45010;53.640;10.578;2024-01-15T03:03:28;1.08;;;0.30;;
59239;SDS011;45010;53.640;10.578;2024-01-15T03:06:29;1.95;;;0.52;;
59239;SDS011;45010;53.640;10.578;2024-01-15T03:09:29;0.85;;;0.30;;
59239;SDS011;45010;53.640;10.578;2024-01-15T03:12:29;0.82;;;0.60;;
59239;SDS011;45010;53.640;10.578;2024-01-15T03:15:30;0.57;;;0.30;;
59239;SDS011;45010;53.640;10.578;2024-01-15T03:18:30;1.00;;;0.38;;
59239;SDS011;45010;53.640;10.578;2024-01-15T03:21:30;0.47;;;0.30;;
59239;SDS011;45010;53.640;10.578;2024-01-15T03:24:31;0.95;;;0.38;;
59239;SDS011;45010;53.640;10.578;2024-01-15T03:27:32;0.95;;;0.30;;
59239;SDS011;45010;53.640;10.578;2024-01-15T03:30:32;0.80;;;0.25;;
59239;SDS011;45010;53.640;10.578;2024-01-15T03:33:32;1.20;;;0.30;;
59239;SDS011;45010;53.640;10.578;2024-01-15T03:36:33;1.25;;;0.32;;
59239;SDS011;45010;53.640;10.578;2024-01-15T03:39:33;0.68;;;0.22;;
59239;SDS011;45010;53.640;10.578;2024-01-15T03:42:33;0.75;;;0.35;;
59239;SDS011;45010;53.640;10.578;2024-01-15T03:45:33;1.10;;;0.30;;
59239;SDS011;45010;53.640;10.578;2024-01-15T03:48:34;0.80;;;0.40;;
59239;SDS011;45010;53.640;10.578;2024-01-15T03:51:34;1.17;;;0.47;;
59239;SDS011;45010;53.640;10.578;2024-01-15T03:54:34;0.43;;;0.20;;
59239;SDS011;45010;53.640;10.578;2024-01-15T03:57:35;0.95;;;0.40;;
59239;SDS011;45010;53.640;10.578;2024-01-15T04:00:35;1.17;;;0.60;;
59239;SDS011;45010;53.640;10.578;2024-01-15T04:03:35;0.75;;;0.40;;
59239;SDS011;45010;53.640;10.578;2024-01-15T04:06:36;1.30;;;0.50;;
59239;SDS011;45010;53.640;10.578;2024-01-15T04:09:37;0.93;;;0.30;;
59239;SDS011;45010;53.640;10.578;2024-01-15T04:12:37;0.55;;;0.20;;
59239;SDS011;45010;53.640;10.578;2024-01-15T04:15:37;0.85;;;0.40;;
59239;SDS011;45010;53.640;10.578;2024-01-15T04:18:38;1.02;;;0.55;;
59239;SDS011;45010;53.640;10.578;2024-01-15T04:21:38;1.73;;;0.30;;
59239;SDS011;45010;53.640;10.578;2024-01-15T04:24:39;0.65;;;0.30;;
59239;SDS011;45010;53.640;10.578;2024-01-15T04:27:40;0.95;;;0.50;;
59239;SDS011;45010;53.640;10.578;2024-01-15T04:30:40;0.88;;;0.30;;
59239;SDS011;45010;53.640;10.578;2024-01-15T04:33:40;1.27;;;0.30;;
59239;SDS011;45010;53.640;10.578;2024-01-15T04:36:40;0.95;;;0.40;;
59239;SDS011;45010;53.640;10.578;2024-01-15T04:39:41;1.30;;;0.40;;
59239;SDS011;45010;53.640;10.578;2024-01-15T04:42:42;0.75;;;0.38;;
59239;SDS011;45010;53.640;10.578;2024-01-15T04:45:42;0.90;;;0.40;;
59239;SDS011;45010;53.640;10.578;2024-01-15T04:48:42;1.02;;;0.30;;
59239;SDS011;45010;53.640;10.578;2024-01-15T04:51:42;0.85;;;0.40;;
59239;SDS011;45010;53.640;10.578;2024-01-15T04:54:43;0.63;;;0.30;;
59239;SDS011;45010;53.640;10.578;2024-01-15T04:57:43;0.75;;;0.43;;
59239;SDS011;45010;53.640;10.578;2024-01-15T05:00:44;0.50;;;0.20;;
59239;SDS011;45010;53.640;10.578;2024-01-15T05:03:44;1.27;;;0.55;;
59239;SDS011;45010;53.640;10.578;2024-01-15T05:06:44;0.65;;;0.50;;
59239;SDS011;45010;53.640;10.578;2024-01-15T05:09:45;0.65;;;0.30;;
59239;SDS011;45010;53.640;10.578;2024-01-15T05:12:45;0.95;;;0.52;;
59239;SDS011;45010;53.640;10.578;2024-01-15T05:15:45;0.82;;;0.30;;
59239;SDS011;45010;53.640;10.578;2024-01-15T05:18:46;1.30;;;0.60;;
59239;SDS011;45010;53.640;10.578;2024-01-15T05:21:46;0.55;;;0.30;;
59239;SDS011;45010;53.640;10.578;2024-01-15T05:24:46;1.23;;;0.35;;
59239;SDS011;45010;53.640;10.578;2024-01-15T05:27:47;1.88;;;0.30;;
59239;SDS011;45010;53.640;10.578;2024-01-15T05:30:47;0.65;;;0.30;;
59239;SDS011;45010;53.640;10.578;2024-01-15T05:33:47;1.20;;;0.50;;
59239;SDS011;45010;53.640;10.578;2024-01-15T05:36:47;1.23;;;0.40;;
59239;SDS011;45010;53.640;10.578;2024-01-15T05:39:48;1.02;;;0.50;;
59239;SDS011;45010;53.640;10.578;2024-01-15T05:42:48;0.85;;;0.57;;
59239;SDS011;45010;53.640;10.578;2024-01-15T05:45:48;1.25;;;0.40;;
59239;SDS011;45010;53.640;10.578;2024-01-15T05:48:49;2.70;;;0.40;;
59239;SDS011;45010;53.640;10.578;2024-01-15T05:51:49;1.15;;;0.40;;
59239;SDS011;45010;53.640;10.578;2024-01-15T05:54:50;1.00;;;0.30;;
59239;SDS011;45010;53.640;10.578;2024-01-15T05:57:50;1.70;;;0.57;;
59239;SDS011;45010;53.640;10.578;2024-01-15T06:00:51;0.95;;;0.40;;
59239;SDS011;45010;53.640;10.578;2024-01-15T06:03:52;1.48;;;0.30;;
59239;SDS011;45010;53.640;10.578;2024-01-15T06:06:52;1.73;;;0.40;;
59239;SDS011;45010;53.640;10.578;2024-01-15T06:09:52;1.27;;;0.60;;
59239;SDS011;45010;53.640;10.578;2024-01-15T06:12:53;1.98;;;0.50;;
59239;SDS011;45010;53.640;10.578;2024-01-15T06:15:53;1.65;;;0.32;;
59239;SDS011;45010;53.640;10.578;2024-01-15T06:18:53;0.98;;;0.30;;
59239;SDS011;45010;53.640;10.578;2024-01-15T06:21:54;1.17;;;0.50;;
59239;SDS011;45010;53.640;10.578;2024-01-15T06:24:54;1.17;;;0.40;;
59239;SDS011;45010;53.640;10.578;2024-01-15T06:27:55;2.00;;;0.55;;
59239;SDS011;45010;53.640;10.578;2024-01-15T06:30:56;2.55;;;0.60;;
59239;SDS011;45010;53.640;10.578;2024-01-15T06:33:57;1.80;;;0.55;;
59239;SDS011;45010;53.640;10.578;2024-01-15T06:36:58;2.50;;;0.52;;
59239;SDS011;45010;53.640;10.578;2024-01-15T06:39:58;1.45;;;0.60;;
59239;SDS011;45010;53.640;10.578;2024-01-15T06:42:58;1.58;;;0.50;;
59239;SDS011;45010;53.640;10.578;2024-01-15T06:45:59;1.77;;;0.80;;
59239;SDS011;45010;53.640;10.578;2024-01-15T06:48:59;1.67;;;0.60;;
59239;SDS011;45010;53.640;10.578;2024-01-15T06:51:59;2.70;;;0.40;;
59239;SDS011;45010;53.640;10.578;2024-01-15T06:55:00;1.65;;;0.50;;
59239;SDS011;45010;53.640;10.578;2024-01-15T06:58:00;2.60;;;0.70;;
59239;SDS011;45010;53.640;10.578;2024-01-15T07:01:00;1.30;;;0.60;;
59239;SDS011;45010;53.640;10.578;2024-01-15T07:04:01;1.58;;;0.40;;
59239;SDS011;45010;53.640;10.578;2024-01-15T07:07:02;2.78;;;0.60;;
59239;SDS011;45010;53.640;10.578;2024-01-15T07:10:03;1.73;;;0.60;;
59239;SDS011;45010;53.640;10.578;2024-01-15T07:13:03;0.98;;;0.40;;
59239;SDS011;45010;53.640;10.578;2024-01-15T07:16:05;1.98;;;0.57;;
59239;SDS011;45010;53.640;10.578;2024-01-15T07:19:05;0.88;;;0.40;;
59239;SDS011;45010;53.640;10.578;2024-01-15T07:22:06;1.67;;;0.52;;
59239;SDS011;45010;53.640;10.578;2024-01-15T07:25:06;1.35;;;0.50;;
59239;SDS011;45010;53.640;10.578;2024-01-15T07:28:07;1.98;;;0.40;;
59239;SDS011;45010;53.640;10.578;2024-01-15T07:31:07;1.45;;;0.47;;
59239;SDS011;45010;53.640;10.578;2024-01-15T07:34:08;2.67;;;0.80;;
59239;SDS011;45010;53.640;10.578;2024-01-15T07:37:09;1.95;;;0.65;;
59239;SDS011;45010;53.640;10.578;2024-01-15T07:40:09;1.08;;;0.55;;
59239;SDS011;45010;53.640;10.578;2024-01-15T07:43:10;2.80;;;0.60;;
59239;SDS011;45010;53.640;10.578;2024-01-15T07:46:11;2.17;;;0.75;;
59239;SDS011;45010;53.640;10.578;2024-01-15T07:49:11;1.70;;;0.80;;
59239;SDS011;45010;53.640;10.578;2024-01-15T07:52:12;1.73;;;1.05;;
59239;SDS011;45010;53.640;10.578;2024-01-15T07:55:13;2.42;;;0.60;;
59239;SDS011;45010;53.640;10.578;2024-01-15T07:58:14;2.13;;;1.08;;
59239;SDS011;45010;53.640;10.578;2024-01-15T08:01:14;2.70;;;0.70;;
59239;SDS011;45010;53.640;10.578;2024-01-15T08:04:14;2.88;;;0.75;;
59239;SDS011;45010;53.640;10.578;2024-01-15T08:07:15;2.20;;;0.60;;
59239;SDS011;45010;53.640;10.578;2024-01-15T08:10:15;1.98;;;0.55;;
59239;SDS011;45010;53.640;10.578;2024-01-15T08:13:15;3.58;;;0.85;;
59239;SDS011;45010;53.640;10.578;2024-01-15T08:16:16;1.05;;;0.50;;
59239;SDS011;45010;53.640;10.578;2024-01-15T08:19:16;3.40;;;1.13;;
59239;SDS011;45010;53.640;10.578;2024-01-15T08:22:16;3.05;;;0.70;;
59239;SDS011;45010;53.640;10.578;2024-01-15T08:25:17;1.88;;;0.68;;
59239;SDS011;45010;53.640;10.578;2024-01-15T08:28:17;5.15;;;0.75;;
59239;SDS011;45010;53.640;10.578;2024-01-15T08:31:17;3.72;;;1.00;;
59239;SDS011;45010;53.640;10.578;2024-01-15T08:34:18;4.38;;;0.85;;
59239;SDS011;45010;53.640;10.578;2024-01-15T08:37:18;5.97;;;1.17;;
59239;SDS011;45010;53.640;10.578;2024-01-15T08:40:19;4.47;;;1.00;;
59239;SDS011;45010;53.640;10.578;2024-01-15T08:43:19;3.83;;;0.60;;
59239;SDS011;45010;53.640;10.578;2024-01-15T08:46:20;5.35;;;0.98;;
59239;SDS011;45010;53.640;10.578;2024-01-15T08:49:20;3.15;;;0.70;;
59239;SDS011;45010;53.640;10.578;2024-01-15T08:52:20;3.50;;;0.90;;
59239;SDS011;45010;53.640;10.578;2024-01-15T08:55:21;2.65;;;1.00;;
59239;SDS011;45010;53.640;10.578;2024-01-15T08:58:23;2.40;;;0.82;;
59239;SDS011;45010;53.640;10.578;2024-01-15T09:01:24;3.80;;;0.70;;
59239;SDS011;45010;53.640;10.578;2024-01-15T09:04:24;2.42;;;0.60;;
59239;SDS011;45010;53.640;10.578;2024-01-15T09:07:24;2.50;;;0.70;;
59239;SDS011;45010;53.640;10.578;2024-01-15T09:10:26;5.45;;;1.60;;
59239;SDS011;45010;53.640;10.578;2024-01-15T09:13:27;10.23;;;2.40;;
59239;SDS011;45010;53.640;10.578;2024-01-15T09:16:27;14.77;;;3.15;;
59239;SDS011;45010;53.640;10.578;2024-01-15T09:19:27;17.67;;;4.47;;
59239;SDS011;45010;53.640;10.578;2024-01-15T09:22:28;16.88;;;3.53;;
59239;SDS011;45010;53.640;10.578;2024-01-15T09:25:28;11.10;;;3.25;;
59239;SDS011;45010;53.640;10.578;2024-01-15T09:28:29;16.42;;;4.18;;
59239;SDS011;45010;53.640;10.578;2024-01-15T09:31:29;6.53;;;2.70;;
59239;SDS011;45010;53.640;10.578;2024-01-15T09:34:29;12.40;;;2.75;;
59239;SDS011;45010;53.640;10.578;2024-01-15T09:37:30;9.02;;;2.55;;
59239;SDS011;45010;53.640;10.578;2024-01-15T09:40:31;10.90;;;2.40;;
59239;SDS011;45010;53.640;10.578;2024-01-15T09:43:33;8.63;;;2.25;;
59239;SDS011;45010;53.640;10.578;2024-01-15T09:46:34;8.65;;;2.53;;
59239;SDS011;45010;53.640;10.578;2024-01-15T09:49:35;6.32;;;1.90;;
59239;SDS011;45010;53.640;10.578;2024-01-15T09:52:35;4.30;;;1.65;;
59239;SDS011;45010;53.640;10.578;2024-01-15T09:55:36;5.65;;;1.92;;
59239;SDS011;45010;53.640;10.578;2024-01-15T09:58:38;8.82;;;1.63;;
59239;SDS011;45010;53.640;10.578;2024-01-15T10:01:39;3.90;;;1.77;;
59239;SDS011;45010;53.640;10.578;2024-01-15T10:04:40;5.32;;;1.40;;
59239;SDS011;45010;53.640;10.578;2024-01-15T10:07:41;5.22;;;1.40;;
59239;SDS011;45010;53.640;10.578;2024-01-15T10:10:42;6.78;;;1.95;;
59239;SDS011;45010;53.640;10.578;2024-01-15T10:13:43;5.45;;;1.20;;
59239;SDS011;45010;53.640;10.578;2024-01-15T10:16:43;4.72;;;1.40;;
59239;SDS011;45010;53.640;10.578;2024-01-15T10:19:47;3.88;;;1.30;;
59239;SDS011;45010;53.640;10.578;2024-01-15T10:22:48;3.78;;;1.65;;
59239;SDS011;45010;53.640;10.578;2024-01-15T10:25:48;2.95;;;1.27;;
59239;SDS011;45010;53.640;10.578;2024-01-15T10:28:50;3.83;;;1.40;;
59239;SDS011;45010;53.640;10.578;2024-01-15T10:31:51;3.28;;;1.23;;
59239;SDS011;45010;53.640;10.578;2024-01-15T10:34:52;3.08;;;1.10;;
59239;SDS011;45010;53.640;10.578;2024-01-15T10:37:52;4.25;;;1.40;;
59239;SDS011;45010;53.640;10.578;2024-01-15T10:40:53;4.35;;;1.50;;
59239;SDS011;45010;53.640;10.578;2024-01-15T10:43:54;5.85;;;1.20;;
59239;SDS011;45010;53.640;10.578;2024-01-15T10:46:55;3.53;;;1.20;;
59239;SDS011;45010;53.640;10.578;2024-01-15T10:49:56;4.47;;;1.27;;
59239;SDS011;45010;53.640;10.578;2024-01-15T10:52:57;4.07;;;1.45;;
59239;SDS011;45010;53.640;10.578;2024-01-15T10:55:58;4.57;;;1.25;;
59239;SDS011;45010;53.640;10.578;2024-01-15T10:58:59;3.45;;;1.00;;
59239;SDS011;45010;53.640;10.578;2024-01-15T11:01:59;3.70;;;1.60;;
59239;SDS011;45010;53.640;10.578;2024-01-15T11:04:59;2.45;;;1.00;;
59239;SDS011;45010;53.640;10.578;2024-01-15T11:08:00;3.47;;;1.10;;
59239;SDS011;45010;53.640;10.578;2024-01-15T11:11:01;4.30;;;1.20;;
59239;SDS011;45010;53.640;10.578;2024-01-15T11:14:01;4.00;;;1.30;;
59239;SDS011;45010;53.640;10.578;2024-01-15T11:17:02;4.57;;;1.38;;
59239;SDS011;45010;53.640;10.578;2024-01-15T11:20:05;5.25;;;1.35;;
59239;SDS011;45010;53.640;10.578;2024-01-15T11:23:06;5.35;;;1.73;;
59239;SDS011;45010;53.640;10.578;2024-01-15T11:26:26;3.22;;;1.08;;
59239;SDS011;45010;53.640;10.578;2024-01-15T11:32:33;2.67;;;1.17;;
59239;SDS011;45010;53.640;10.578;2024-01-15T11:35:48;1.75;;;0.77;;
59239;SDS011;45010;53.640;10.578;2024-01-15T11:38:50;2.38;;;1.02;;
59239;SDS011;45010;53.640;10.578;2024-01-15T11:41:50;4.13;;;1.10;;
59239;SDS011;45010;53.640;10.578;2024-01-15T11:44:52;3.60;;;0.98;;
59239;SDS011;45010;53.640;10.578;2024-01-15T11:48:11;2.47;;;0.93;;
59239;SDS011;45010;53.640;10.578;2024-01-15T11:51:12;3.25;;;0.95;;
59239;SDS011;45010;53.640;10.578;2024-01-15T11:54:13;2.90;;;1.00;;
59239;SDS011;45010;53.640;10.578;2024-01-15T11:57:18;4.05;;;1.10;;
59239;SDS011;45010;53.640;10.578;2024-01-15T12:00:28;3.08;;;1.05;;
59239;SDS011;45010;53.640;10.578;2024-01-15T12:03:31;4.22;;;1.20;;
59239;SDS011;45010;53.640;10.578;2024-01-15T12:06:33;2.72;;;1.20;;
59239;SDS011;45010;53.640;10.578;2024-01-15T12:09:34;5.93;;;1.10;;
59239;SDS011;45010;53.640;10.578;2024-01-15T12:12:37;5.05;;;1.27;;
59239;SDS011;45010;53.640;10.578;2024-01-15T12:15:46;6.07;;;1.45;;
59239;SDS011;45010;53.640;10.578;2024-01-15T12:18:48;5.07;;;1.08;;
59239;SDS011;45010;53.640;10.578;2024-01-15T12:21:50;3.63;;;1.60;;
59239;SDS011;45010;53.640;10.578;2024-01-15T12:24:50;4.32;;;1.50;;
59239;SDS011;45010;53.640;10.578;2024-01-15T12:27:51;3.17;;;1.38;;
59239;SDS011;45010;53.640;10.578;2024-01-15T12:30:52;2.95;;;1.27;;
59239;SDS011;45010;53.640;10.578;2024-01-15T12:33:53;3.22;;;1.02;;
59239;SDS011;45010;53.640;10.578;2024-01-15T12:36:53;5.75;;;1.63;;
59239;SDS011;45010;53.640;10.578;2024-01-15T12:39:53;3.97;;;1.20;;
59239;SDS011;45010;53.640;10.578;2024-01-15T12:42:55;4.38;;;1.80;;
59239;SDS011;45010;53.640;10.578;2024-01-15T12:45:55;3.80;;;2.05;;
59239;SDS011;45010;53.640;10.578;2024-01-15T12:48:57;5.40;;;1.50;;
59239;SDS011;45010;53.640;10.578;2024-01-15T12:51:57;5.32;;;2.03;;
59239;SDS011;45010;53.640;10.578;2024-01-15T12:54:58;3.90;;;1.70;;
59239;SDS011;45010;53.640;10.578;2024-01-15T12:57:58;3.25;;;1.50;;
59239;SDS011;45010;53.640;10.578;2024-01-15T13:00:59;3.92;;;1.45;;
59239;SDS011;45010;53.640;10.578;2024-01-15T13:03:59;2.58;;;1.60;;
59239;SDS011;45010;53.640;10.578;2024-01-15T13:07:00;4.88;;;1.85;;
59239;SDS011;45010;53.640;10.578;2024-01-15T13:10:00;4.22;;;1.75;;
59239;SDS011;45010;53.640;10.578;2024-01-15T13:13:01;5.43;;;1.77;;
59239;SDS011;45010;53.640;10.578;2024-01-15T13:16:01;3.63;;;1.48;;
59239;SDS011;45010;53.640;10.578;2024-01-15T13:19:02;4.28;;;1.70;;
59239;SDS011;45010;53.640;10.578;2024-01-15T13:22:04;3.40;;;1.77;;
59239;SDS011;45010;53.640;10.578;2024-01-15T13:25:07;6.43;;;1.90;;
59239;SDS011;45010;53.640;10.578;2024-01-15T13:28:07;4.85;;;1.85;;
59239;SDS011;45010;53.640;10.578;2024-01-15T13:31:08;4.72;;;1.77;;
59239;SDS011;45010;53.640;10.578;2024-01-15T13:34:08;5.40;;;2.05;;
59239;SDS011;45010;53.640;10.578;2024-01-15T13:37:09;5.07;;;2.03;;
59239;SDS011;45010;53.640;10.578;2024-01-15T13:40:09;4.10;;;1.80;;
59239;SDS011;45010;53.640;10.578;2024-01-15T13:43:16;4.15;;;2.53;;
59239;SDS011;45010;53.640;10.578;2024-01-15T13:46:19;3.80;;;2.40;;
59239;SDS011;45010;53.640;10.578;2024-01-15T13:49:23;3.03;;;2.40;;
59239;SDS011;45010;53.640;10.578;2024-01-15T13:52:24;4.60;;;2.40;;
59239;SDS011;45010;53.640;10.578;2024-01-15T13:55:24;5.03;;;2.40;;
59239;SDS011;45010;53.640;10.578;2024-01-15T13:58:25;7.60;;;2.50;;
59239;SDS011;45010;53.640;10.578;2024-01-15T14:01:27;5.80;;;3.15;;
59239;SDS011;45010;53.640;10.578;2024-01-15T14:04:28;5.30;;;3.15;;
59239;SDS011;45010;53.640;10.578;2024-01-15T14:07:28;5.00;;;3.22;;
59239;SDS011;45010;53.640;10.578;2024-01-15T14:10:29;4.70;;;3.03;;
59239;SDS011;45010;53.640;10.578;2024-01-15T14:13:29;6.45;;;3.45;;
59239;SDS011;45010;53.640;10.578;2024-01-15T14:16:29;6.13;;;3.50;;
59239;SDS011;45010;53.640;10.578;2024-01-15T14:19:29;7.70;;;3.35;;
59239;SDS011;45010;53.640;10.578;2024-01-15T14:22:30;5.75;;;3.60;;
59239;SDS011;45010;53.640;10.578;2024-01-15T14:25:30;5.15;;;3.53;;
59239;SDS011;45010;53.640;10.578;2024-01-15T14:28:31;5.75;;;3.20;;
59239;SDS011;45010;53.640;10.578;2024-01-15T14:31:31;7.13;;;3.95;;
59239;SDS011;45010;53.640;10.578;2024-01-15T14:34:33;6.55;;;3.83;;
59239;SDS011;45010;53.640;10.578;2024-01-15T14:37:33;8.77;;;4.07;;
59239;SDS011;45010;53.640;10.578;2024-01-15T14:40:34;8.23;;;4.25;;
59239;SDS011;45010;53.640;10.578;2024-01-15T14:43:35;6.00;;;3.75;;
59239;SDS011;45010;53.640;10.578;2024-01-15T14:46:35;6.30;;;3.70;;
59239;SDS011;45010;53.640;10.578;2024-01-15T14:49:36;5.35;;;3.20;;
59239;SDS011;45010;53.640;10.578;2024-01-15T14:52:36;7.63;;;3.60;;
59239;SDS011;45010;53.640;10.578;2024-01-15T14:55:36;5.00;;;3.30;;
59239;SDS011;45010;53.640;10.578;2024-01-15T14:58:37;6.22;;;3.08;;
59239;SDS011;45010;53.640;10.578;2024-01-15T15:01:37;6.38;;;3.55;;
59239;SDS011;45010;53.640;10.578;2024-01-15T15:04:37;8.27;;;3.58;;
59239;SDS011;45010;53.640;10.578;2024-01-15T15:07:38;6.57;;;3.30;;
59239;SDS011;45010;53.640;10.578;2024-01-15T15:10:38;4.35;;;3.20;;
59239;SDS011;45010;53.640;10.578;2024-01-15T15:13:40;5.22;;;2.92;;
59239;SDS011;45010;53.640;10.578;2024-01-15T15:16:40;39.92;;;11.18;;
59239;SDS011;45010;53.640;10.578;2024-01-15T15:19:41;31.33;;;8.00;;
59239;SDS011;45010;53.640;10.578;2024-01-15T15:22:41;21.35;;;6.10;;
59239;SDS011;45010;53.640;10.578;2024-01-15T15:25:42;16.73;;;5.47;;
59239;SDS011;45010;53.640;10.578;2024-01-15T15:28:43;13.98;;;4.88;;
59239;SDS011;45010;53.640;10.578;2024-01-15T15:31:43;9.13;;;4.13;;
59239;SDS011;45010;53.640;10.578;2024-01-15T15:34:44;10.88;;;3.88;;
59239;SDS011;45010;53.640;10.578;2024-01-15T15:37:44;11.27;;;3.65;;
59239;SDS011;45010;53.640;10.578;2024-01-15T15:40:44;8.68;;;3.58;;
59239;SDS011;45010;53.640;10.578;2024-01-15T15:43:45;8.48;;;3.20;;
59239;SDS011;45010;53.640;10.578;2024-01-15T15:46:45;6.57;;;3.03;;
59239;SDS011;45010;53.640;10.578;2024-01-15T15:49:45;8.10;;;3.40;;
59239;SDS011;45010;53.640;10.578;2024-01-15T15:52:45;9.00;;;2.78;;
59239;SDS011;45010;53.640;10.578;2024-01-15T15:55:46;11.60;;;3.33;;
59239;SDS011;45010;53.640;10.578;2024-01-15T15:58:46;6.50;;;3.30;;
59239;SDS011;45010;53.640;10.578;2024-01-15T16:01:47;6.25;;;2.42;;
59239;SDS011;45010;53.640;10.578;2024-01-15T16:04:48;6.10;;;3.08;;
59239;SDS011;45010;53.640;10.578;2024-01-15T16:07:48;6.35;;;2.65;;
59239;SDS011;45010;53.640;10.578;2024-01-15T16:10:49;6.80;;;2.97;;
59239;SDS011;45010;53.640;10.578;2024-01-15T16:13:51;7.85;;;3.38;;
59239;SDS011;45010;53.640;10.578;2024-01-15T16:16:51;6.50;;;2.65;;
59239;SDS011;45010;53.640;10.578;2024-01-15T16:19:56;4.95;;;2.30;;
59239;SDS011;45010;53.640;10.578;2024-01-15T16:22:56;5.43;;;2.60;;
59239;SDS011;45010;53.640;10.578;2024-01-15T16:25:56;5.15;;;2.13;;
59239;SDS011;45010;53.640;10.578;2024-01-15T16:28:57;5.15;;;2.03;;
59239;SDS011;45010;53.640;10.578;2024-01-15T16:31:57;5.97;;;1.52;;
59239;SDS011;45010;53.640;10.578;2024-01-15T16:34:57;4.90;;;1.58;;
59239;SDS011;45010;53.640;10.578;2024-01-15T16:37:58;3.90;;;1.65;;
59239;SDS011;45010;53.640;10.578;2024-01-15T16:40:58;4.35;;;1.83;;
59239;SDS011;45010;53.640;10.578;2024-01-15T16:43:58;5.90;;;1.92;;
59239;SDS011;45010;53.640;10.578;2024-01-15T16:46:59;5.18;;;1.85;;
59239;SDS011;45010;53.640;10.578;2024-01-15T16:50:00;3.97;;;1.95;;
59239;SDS011;45010;53.640;10.578;2024-01-15T16:53:01;5.65;;;2.03;;
59239;SDS011;45010;53.640;10.578;2024-01-15T16:56:01;2.90;;;1.42;;
59239;SDS011;45010;53.640;10.578;2024-01-15T16:59:02;3.28;;;1.80;;
59239;SDS011;45010;53.640;10.578;2024-01-15T17:02:02;3.20;;;1.63;;
59239;SDS011;45010;53.640;10.578;2024-01-15T17:05:03;4.65;;;2.10;;
59239;SDS011;45010;53.640;10.578;2024-01-15T17:08:04;4.32;;;1.70;;
59239;SDS011;45010;53.640;10.578;2024-01-15T17:11:06;3.47;;;2.15;;
59239;SDS011;45010;53.640;10.578;2024-01-15T17:14:07;3.08;;;1.73;;
59239;SDS011;45010;53.640;10.578;2024-01-15T17:17:08;2.97;;;1.55;;
59239;SDS011;45010;53.640;10.578;2024-01-15T17:20:08;3.30;;;1.80;;
59239;SDS011;45010;53.640;10.578;2024-01-15T17:23:09;3.67;;;1.45;;
59239;SDS011;45010;53.640;10.578;2024-01-15T17:26:09;2.90;;;1.42;;
59239;SDS011;45010;53.640;10.578;2024-01-15T17:29:09;5.10;;;1.52;;
59239;SDS011;45010;53.640;10.578;2024-01-15T17:32:10;3.20;;;1.77;;
59239;SDS011;45010;53.640;10.578;2024-01-15T17:35:10;3.03;;;1.40;;
59239;SDS011;45010;53.640;10.578;2024-01-15T17:38:11;3.40;;;1.30;;
59239;SDS011;45010;53.640;10.578;2024-01-15T17:41:11;3.60;;;2.05;;
59239;SDS011;45010;53.640;10.578;2024-01-15T17:44:12;3.50;;;1.50;;
59239;SDS011;45010;53.640;10.578;2024-01-15T17:47:13;2.42;;;1.30;;
59239;SDS011;45010;53.640;10.578;2024-01-15T17:50:13;4.95;;;1.67;;
59239;SDS011;45010;53.640;10.578;2024-01-15T17:53:13;2.20;;;1.35;;
59239;SDS011;45010;53.640;10.578;2024-01-15T17:56:14;4.47;;;1.85;;